Terminal Aerodrome Forecast
Issued by NWS

Current Version | Previous Version | Text Only | Print | Product List | Glossary On
Versions: 1 2 3 4 5 6 7 8 9 10 11 12 13 14 15 16
000
FTUS41 KBTV 161131
TAFPBG
TAF
KPBG 161131Z 1612/1712 19004KT P6SM FEW040 SCT100
     FM161500 18009G17KT P6SM FEW150
     FM162300 18005KT P6SM SKC
     FM170400 VRB03KT P6SM SCT100=

USA.gov is the U.S. government's official web portal to all federal, state and local government web resources and services.